Aérodrome :
LOGIN :

S'inscrire | Disclaimer

   EN    FR    IT 

 










Légende :    VFR   VFR Marginal   IFR   IFR Intensif   IFR Très Intensif
Visi : 
Plafond : 
>= 8 km
>= 3000ft
5 à 8 km
1000 à 3000 ft
1500m à 5 km
500 à 1000 ft
800 à 1500m
200 à 500 ft
< 800m
< 200 ft
Symboles :   Orages  Brouillard  Fortes neiges  Fortes précipitations  Vent > 20 kt
SIGMETs :   Divers  Orages  Givrage  Turbulence  Onde Orograph.  Cendres Volcan.






- Altitude de l'aérodrome : 459 ft
- Code IATA : CER


LFRC - Cherbourg / Maupertus

DERNIER METAR :
  • 250630Z AUTO 26012KT 9999 FEW022 06/04 Q1007 TEMPO 4000 SHRA BKN015TCU BECMG 26015G30KT

METARs EXPIRÉS :
  • 250600Z AUTO 27011KT 9999 SCT019 BKN027 BKN033 06/04 Q1007 TEMPO 4000 SHRA BKN015TCU BECMG 26015G30KT
  • 250530Z AUTO 26010KT 9999 FEW034 BKN045 OVC054 06/03 Q1008 TEMPO 4000 SHRA BKN015TCU BECMG 26015G30KT
  • 250500Z AUTO 27012KT 9999 FEW020 06/04 Q1008
  • 250430Z AUTO 26014KT 9999 FEW047 06/04 Q1008
  • 250400Z AUTO 28017KT 9999 -RADZ FEW017 BKN027 BKN035 07/05 Q1008
  • 250330Z AUTO 27015KT 9999 FEW020 SCT035 OVC041 07/05 Q1008

TAF TAF LFRC
Valide du 25 à 06h jusqu'au 25 à 15h UTC


250500Z 2506/2515 26015G30KT 9999 BKN030
TEMPO 2506/2510 4000 SHRA BKN015TCU
BECMG 2510/2512 26020G40KT
TEMPO 2510/2515 3000 SHRAGS BKN015CB
PROB40
TEMPO 2513/2515 26025G50KT 2000 TSRAGS BKN015CB



MET'MAP, la Météo Aéronautique d'un coup d'oeil ! - Copyright ORBIFLY Décembre 2007 - Disclaimer

ORBIFLY MET'MAP TEAM :

Programmation & Développement : Alexandra Zaïnal
Sur une idée originale de : Baudouin d'Aumeries
Assistance à la programmation : Marc-Olivier Méhu
Soutien technique & logistique : Manuel Goepfert

Contact : metmap@orbifly.com




SOURCES & CREDITS :

   NOAA